sensor_id;sensor_type;location;lat;lon;timestamp;P1;durP1;ratioP1;P2;durP2;ratioP2
45316;SDS011;31053;55.870;37.592;2023-11-22T00:02:14;5.22;;;2.13;;
45316;SDS011;31053;55.870;37.592;2023-11-22T00:08:40;2.53;;;1.52;;
45316;SDS011;31053;55.870;37.592;2023-11-22T00:11:47;4.00;;;1.80;;
45316;SDS011;31053;55.870;37.592;2023-11-22T00:14:52;4.20;;;2.15;;
45316;SDS011;31053;55.870;37.592;2023-11-22T00:17:57;6.53;;;1.92;;
45316;SDS011;31053;55.870;37.592;2023-11-22T00:21:02;8.02;;;1.98;;
45316;SDS011;31053;55.870;37.592;2023-11-22T00:24:08;5.35;;;1.95;;
45316;SDS011;31053;55.870;37.592;2023-11-22T00:27:16;6.63;;;2.40;;
45316;SDS011;31053;55.870;37.592;2023-11-22T00:30:23;3.47;;;2.20;;
45316;SDS011;31053;55.870;37.592;2023-11-22T00:33:33;4.93;;;1.85;;
45316;SDS011;31053;55.870;37.592;2023-11-22T00:36:39;5.93;;;2.58;;
45316;SDS011;31053;55.870;37.592;2023-11-22T00:39:37;6.95;;;2.28;;
45316;SDS011;31053;55.870;37.592;2023-11-22T00:42:42;5.43;;;2.60;;
45316;SDS011;31053;55.870;37.592;2023-11-22T00:48:53;5.13;;;2.22;;
45316;SDS011;31053;55.870;37.592;2023-11-22T00:52:00;6.32;;;2.70;;
45316;SDS011;31053;55.870;37.592;2023-11-22T00:55:10;3.78;;;2.50;;
45316;SDS011;31053;55.870;37.592;2023-11-22T00:58:15;6.85;;;3.35;;
45316;SDS011;31053;55.870;37.592;2023-11-22T01:01:21;4.40;;;2.38;;
45316;SDS011;31053;55.870;37.592;2023-11-22T01:04:26;9.18;;;3.60;;
45316;SDS011;31053;55.870;37.592;2023-11-22T01:07:34;12.00;;;2.55;;
45316;SDS011;31053;55.870;37.592;2023-11-22T01:10:41;7.25;;;2.90;;
45316;SDS011;31053;55.870;37.592;2023-11-22T01:13:58;8.57;;;3.22;;
45316;SDS011;31053;55.870;37.592;2023-11-22T01:17:03;6.15;;;2.53;;
45316;SDS011;31053;55.870;37.592;2023-11-22T01:20:11;4.63;;;2.40;;
45316;SDS011;31053;55.870;37.592;2023-11-22T01:27:04;8.18;;;2.75;;
45316;SDS011;31053;55.870;37.592;2023-11-22T01:29:50;7.32;;;2.78;;
45316;SDS011;31053;55.870;37.592;2023-11-22T01:36:32;4.35;;;2.50;;
45316;SDS011;31053;55.870;37.592;2023-11-22T01:39:41;4.95;;;2.55;;
45316;SDS011;31053;55.870;37.592;2023-11-22T01:43:32;5.75;;;2.67;;
45316;SDS011;31053;55.870;37.592;2023-11-22T01:46:37;5.43;;;2.67;;
45316;SDS011;31053;55.870;37.592;2023-11-22T01:49:47;10.47;;;2.80;;
45316;SDS011;31053;55.870;37.592;2023-11-22T01:53:01;8.50;;;3.40;;
45316;SDS011;31053;55.870;37.592;2023-11-22T01:56:14;6.05;;;2.30;;
45316;SDS011;31053;55.870;37.592;2023-11-22T01:59:21;6.97;;;2.53;;
45316;SDS011;31053;55.870;37.592;2023-11-22T02:02:26;11.77;;;3.80;;
45316;SDS011;31053;55.870;37.592;2023-11-22T02:09:11;3.63;;;1.63;;
45316;SDS011;31053;55.870;37.592;2023-11-22T02:12:31;6.63;;;2.00;;
45316;SDS011;31053;55.870;37.592;2023-11-22T02:15:43;5.53;;;2.22;;
45316;SDS011;31053;55.870;37.592;2023-11-22T02:18:48;10.73;;;2.65;;
45316;SDS011;31053;55.870;37.592;2023-11-22T02:22:13;9.45;;;2.28;;
45316;SDS011;31053;55.870;37.592;2023-11-22T02:25:22;7.15;;;2.40;;
45316;SDS011;31053;55.870;37.592;2023-11-22T02:28:32;6.78;;;2.17;;
45316;SDS011;31053;55.870;37.592;2023-11-22T02:31:52;7.47;;;2.42;;
45316;SDS011;31053;55.870;37.592;2023-11-22T02:34:58;7.55;;;1.73;;
45316;SDS011;31053;55.870;37.592;2023-11-22T02:38:05;9.30;;;1.50;;
45316;SDS011;31053;55.870;37.592;2023-11-22T02:41:04;8.57;;;2.25;;
45316;SDS011;31053;55.870;37.592;2023-11-22T02:44:19;4.57;;;2.03;;
45316;SDS011;31053;55.870;37.592;2023-11-22T02:50:50;6.28;;;1.85;;
45316;SDS011;31053;55.870;37.592;2023-11-22T03:12:39;3.97;;;1.60;;
45316;SDS011;31053;55.870;37.592;2023-11-22T03:18:58;3.35;;;1.88;;
45316;SDS011;31053;55.870;37.592;2023-11-22T03:21:55;4.53;;;1.30;;
45316;SDS011;31053;55.870;37.592;2023-11-22T03:25:09;7.43;;;1.25;;
45316;SDS011;31053;55.870;37.592;2023-11-22T03:28:18;2.60;;;1.38;;
45316;SDS011;31053;55.870;37.592;2023-11-22T03:31:28;3.30;;;1.65;;
45316;SDS011;31053;55.870;37.592;2023-11-22T03:34:39;4.13;;;1.70;;
45316;SDS011;31053;55.870;37.592;2023-11-22T03:37:52;4.78;;;1.30;;
45316;SDS011;31053;55.870;37.592;2023-11-22T03:41:00;3.15;;;1.35;;
45316;SDS011;31053;55.870;37.592;2023-11-22T03:44:05;2.75;;;1.60;;
45316;SDS011;31053;55.870;37.592;2023-11-22T03:47:16;4.40;;;1.70;;
45316;SDS011;31053;55.870;37.592;2023-11-22T03:50:07;3.17;;;1.80;;
45316;SDS011;31053;55.870;37.592;2023-11-22T03:53:12;3.30;;;1.77;;
45316;SDS011;31053;55.870;37.592;2023-11-22T03:56:38;4.18;;;1.50;;
45316;SDS011;31053;55.870;37.592;2023-11-22T04:03:27;3.83;;;1.27;;
45316;SDS011;31053;55.870;37.592;2023-11-22T04:25:30;3.03;;;1.42;;
45316;SDS011;31053;55.870;37.592;2023-11-22T04:28:41;5.22;;;1.73;;
45316;SDS011;31053;55.870;37.592;2023-11-22T04:39:57;4.47;;;1.25;;
45316;SDS011;31053;55.870;37.592;2023-11-22T04:43:11;6.43;;;1.30;;
45316;SDS011;31053;55.870;37.592;2023-11-22T04:46:37;3.65;;;1.40;;
45316;SDS011;31053;55.870;37.592;2023-11-22T04:49:50;5.22;;;1.65;;
45316;SDS011;31053;55.870;37.592;2023-11-22T04:53:05;2.42;;;1.55;;
45316;SDS011;31053;55.870;37.592;2023-11-22T04:59:51;2.00;;;0.98;;
45316;SDS011;31053;55.870;37.592;2023-11-22T05:03:12;4.45;;;1.02;;
45316;SDS011;31053;55.870;37.592;2023-11-22T05:11:09;1.85;;;1.30;;
45316;SDS011;31053;55.870;37.592;2023-11-22T05:19:02;4.90;;;1.58;;
45316;SDS011;31053;55.870;37.592;2023-11-22T05:22:09;4.22;;;1.40;;
45316;SDS011;31053;55.870;37.592;2023-11-22T05:25:18;1.23;;;1.08;;
45316;SDS011;31053;55.870;37.592;2023-11-22T05:28:23;1.52;;;1.27;;
45316;SDS011;31053;55.870;37.592;2023-11-22T05:31:28;1.58;;;0.70;;
45316;SDS011;31053;55.870;37.592;2023-11-22T05:34:34;1.10;;;0.80;;
45316;SDS011;31053;55.870;37.592;2023-11-22T05:37:38;1.77;;;0.88;;
45316;SDS011;31053;55.870;37.592;2023-11-22T05:40:43;2.10;;;1.38;;
45316;SDS011;31053;55.870;37.592;2023-11-22T05:43:48;1.17;;;0.90;;
45316;SDS011;31053;55.870;37.592;2023-11-22T05:46:53;2.30;;;1.00;;
45316;SDS011;31053;55.870;37.592;2023-11-22T05:49:59;1.42;;;1.02;;
45316;SDS011;31053;55.870;37.592;2023-11-22T05:53:03;1.70;;;0.80;;
45316;SDS011;31053;55.870;37.592;2023-11-22T05:56:08;1.50;;;1.00;;
45316;SDS011;31053;55.870;37.592;2023-11-22T05:59:13;1.00;;;0.95;;
45316;SDS011;31053;55.870;37.592;2023-11-22T06:02:17;1.40;;;0.90;;
45316;SDS011;31053;55.870;37.592;2023-11-22T06:05:21;1.75;;;1.10;;
45316;SDS011;31053;55.870;37.592;2023-11-22T06:08:26;2.40;;;1.00;;
45316;SDS011;31053;55.870;37.592;2023-11-22T06:11:31;2.15;;;1.13;;
45316;SDS011;31053;55.870;37.592;2023-11-22T06:14:36;11.80;;;1.20;;
45316;SDS011;31053;55.870;37.592;2023-11-22T06:17:40;2.13;;;1.30;;
45316;SDS011;31053;55.870;37.592;2023-11-22T06:20:45;1.92;;;0.90;;
45316;SDS011;31053;55.870;37.592;2023-11-22T06:23:53;2.83;;;1.30;;
45316;SDS011;31053;55.870;37.592;2023-11-22T06:27:00;1.25;;;0.60;;
45316;SDS011;31053;55.870;37.592;2023-11-22T06:30:05;1.15;;;0.98;;
45316;SDS011;31053;55.870;37.592;2023-11-22T06:33:11;1.63;;;1.17;;
45316;SDS011;31053;55.870;37.592;2023-11-22T06:36:15;2.88;;;1.10;;
45316;SDS011;31053;55.870;37.592;2023-11-22T06:39:20;2.45;;;1.58;;
45316;SDS011;31053;55.870;37.592;2023-11-22T06:42:27;3.28;;;1.30;;
45316;SDS011;31053;55.870;37.592;2023-11-22T06:45:33;1.55;;;0.80;;
45316;SDS011;31053;55.870;37.592;2023-11-22T06:48:37;2.05;;;1.20;;
45316;SDS011;31053;55.870;37.592;2023-11-22T06:51:42;3.70;;;0.80;;
45316;SDS011;31053;55.870;37.592;2023-11-22T06:54:47;3.35;;;1.15;;
45316;SDS011;31053;55.870;37.592;2023-11-22T06:57:56;0.88;;;0.60;;
45316;SDS011;31053;55.870;37.592;2023-11-22T07:01:01;5.07;;;0.82;;
45316;SDS011;31053;55.870;37.592;2023-11-22T07:04:06;2.67;;;0.75;;
45316;SDS011;31053;55.870;37.592;2023-11-22T07:07:11;2.42;;;1.10;;
45316;SDS011;31053;55.870;37.592;2023-11-22T07:10:15;1.33;;;0.93;;
45316;SDS011;31053;55.870;37.592;2023-11-22T07:13:21;2.37;;;1.30;;
45316;SDS011;31053;55.870;37.592;2023-11-22T07:16:27;2.08;;;1.10;;
45316;SDS011;31053;55.870;37.592;2023-11-22T07:19:33;6.20;;;1.08;;
45316;SDS011;31053;55.870;37.592;2023-11-22T07:22:46;5.40;;;1.35;;
45316;SDS011;31053;55.870;37.592;2023-11-22T07:25:51;4.32;;;1.65;;
45316;SDS011;31053;55.870;37.592;2023-11-22T07:28:56;1.90;;;1.10;;
45316;SDS011;31053;55.870;37.592;2023-11-22T07:32:01;1.20;;;0.70;;
45316;SDS011;31053;55.870;37.592;2023-11-22T07:35:07;6.22;;;1.27;;
45316;SDS011;31053;55.870;37.592;2023-11-22T07:38:17;3.58;;;1.50;;
45316;SDS011;31053;55.870;37.592;2023-11-22T07:41:22;2.03;;;1.10;;
45316;SDS011;31053;55.870;37.592;2023-11-22T07:44:27;2.17;;;1.25;;
45316;SDS011;31053;55.870;37.592;2023-11-22T07:47:32;3.22;;;1.52;;
45316;SDS011;31053;55.870;37.592;2023-11-22T07:50:37;5.10;;;1.23;;
45316;SDS011;31053;55.870;37.592;2023-11-22T07:53:43;9.20;;;0.93;;
45316;SDS011;31053;55.870;37.592;2023-11-22T07:56:49;3.83;;;1.25;;
45316;SDS011;31053;55.870;37.592;2023-11-22T07:59:54;2.58;;;1.15;;
45316;SDS011;31053;55.870;37.592;2023-11-22T08:03:00;2.03;;;1.23;;
45316;SDS011;31053;55.870;37.592;2023-11-22T08:06:08;3.13;;;1.40;;
45316;SDS011;31053;55.870;37.592;2023-11-22T08:09:13;2.58;;;1.05;;
45316;SDS011;31053;55.870;37.592;2023-11-22T08:12:21;3.58;;;1.10;;
45316;SDS011;31053;55.870;37.592;2023-11-22T08:15:28;3.63;;;1.15;;
45316;SDS011;31053;55.870;37.592;2023-11-22T08:18:33;4.43;;;1.00;;
45316;SDS011;31053;55.870;37.592;2023-11-22T08:21:37;2.10;;;1.23;;
45316;SDS011;31053;55.870;37.592;2023-11-22T08:24:43;3.70;;;1.20;;
45316;SDS011;31053;55.870;37.592;2023-11-22T08:27:48;2.60;;;1.20;;
45316;SDS011;31053;55.870;37.592;2023-11-22T08:30:54;2.78;;;1.27;;
45316;SDS011;31053;55.870;37.592;2023-11-22T08:33:59;2.22;;;1.10;;
45316;SDS011;31053;55.870;37.592;2023-11-22T08:37:06;6.00;;;1.10;;
45316;SDS011;31053;55.870;37.592;2023-11-22T08:40:11;3.05;;;1.17;;
45316;SDS011;31053;55.870;37.592;2023-11-22T08:43:18;4.20;;;1.35;;
45316;SDS011;31053;55.870;37.592;2023-11-22T08:46:27;1.30;;;0.70;;
45316;SDS011;31053;55.870;37.592;2023-11-22T08:49:33;3.33;;;1.38;;
45316;SDS011;31053;55.870;37.592;2023-11-22T08:55:44;2.63;;;0.82;;
45316;SDS011;31053;55.870;37.592;2023-11-22T08:58:49;7.80;;;1.65;;
45316;SDS011;31053;55.870;37.592;2023-11-22T09:01:57;2.63;;;1.38;;
45316;SDS011;31053;55.870;37.592;2023-11-22T09:05:02;4.43;;;1.48;;
45316;SDS011;31053;55.870;37.592;2023-11-22T09:08:13;2.30;;;0.98;;
45316;SDS011;31053;55.870;37.592;2023-11-22T09:11:19;6.90;;;2.08;;
45316;SDS011;31053;55.870;37.592;2023-11-22T09:14:27;2.70;;;1.27;;
45316;SDS011;31053;55.870;37.592;2023-11-22T09:17:33;3.55;;;1.35;;
45316;SDS011;31053;55.870;37.592;2023-11-22T09:20:39;3.92;;;1.27;;
45316;SDS011;31053;55.870;37.592;2023-11-22T09:23:48;1.90;;;1.27;;
45316;SDS011;31053;55.870;37.592;2023-11-22T09:26:53;4.53;;;1.10;;
45316;SDS011;31053;55.870;37.592;2023-11-22T09:29:59;1.65;;;1.05;;
45316;SDS011;31053;55.870;37.592;2023-11-22T09:33:07;0.95;;;0.82;;
45316;SDS011;31053;55.870;37.592;2023-11-22T09:36:15;2.05;;;1.25;;
45316;SDS011;31053;55.870;37.592;2023-11-22T09:39:21;6.80;;;2.90;;
45316;SDS011;31053;55.870;37.592;2023-11-22T09:42:26;2.58;;;1.52;;
45316;SDS011;31053;55.870;37.592;2023-11-22T09:45:31;3.05;;;1.73;;
45316;SDS011;31053;55.870;37.592;2023-11-22T09:48:36;2.03;;;1.17;;
45316;SDS011;31053;55.870;37.592;2023-11-22T09:54:48;6.13;;;1.20;;
45316;SDS011;31053;55.870;37.592;2023-11-22T09:57:58;2.33;;;1.10;;
45316;SDS011;31053;55.870;37.592;2023-11-22T10:01:06;2.58;;;1.25;;
45316;SDS011;31053;55.870;37.592;2023-11-22T10:04:15;4.85;;;1.05;;
45316;SDS011;31053;55.870;37.592;2023-11-22T10:07:20;1.95;;;1.30;;
45316;SDS011;31053;55.870;37.592;2023-11-22T10:10:25;5.80;;;1.50;;
45316;SDS011;31053;55.870;37.592;2023-11-22T10:13:31;3.60;;;1.27;;
45316;SDS011;31053;55.870;37.592;2023-11-22T10:16:36;9.98;;;1.50;;
45316;SDS011;31053;55.870;37.592;2023-11-22T10:19:41;3.17;;;1.70;;
45316;SDS011;31053;55.870;37.592;2023-11-22T10:22:47;3.55;;;1.45;;
45316;SDS011;31053;55.870;37.592;2023-11-22T10:25:52;4.50;;;1.60;;
45316;SDS011;31053;55.870;37.592;2023-11-22T10:28:58;3.00;;;1.90;;
45316;SDS011;31053;55.870;37.592;2023-11-22T10:32:03;3.15;;;1.77;;
45316;SDS011;31053;55.870;37.592;2023-11-22T10:35:08;4.77;;;1.90;;
45316;SDS011;31053;55.870;37.592;2023-11-22T10:38:17;2.38;;;1.23;;
45316;SDS011;31053;55.870;37.592;2023-11-22T10:41:21;4.13;;;1.02;;
45316;SDS011;31053;55.870;37.592;2023-11-22T10:44:26;1.90;;;0.90;;
45316;SDS011;31053;55.870;37.592;2023-11-22T10:47:32;2.50;;;1.17;;
45316;SDS011;31053;55.870;37.592;2023-11-22T10:50:46;2.30;;;1.10;;
45316;SDS011;31053;55.870;37.592;2023-11-22T10:53:53;3.35;;;1.17;;
45316;SDS011;31053;55.870;37.592;2023-11-22T10:56:59;0.82;;;0.80;;
45316;SDS011;31053;55.870;37.592;2023-11-22T11:00:04;3.08;;;1.48;;
45316;SDS011;31053;55.870;37.592;2023-11-22T11:03:17;3.33;;;1.45;;
45316;SDS011;31053;55.870;37.592;2023-11-22T11:06:24;3.20;;;1.27;;
45316;SDS011;31053;55.870;37.592;2023-11-22T11:09:34;3.03;;;1.33;;
45316;SDS011;31053;55.870;37.592;2023-11-22T11:12:40;2.63;;;1.15;;
45316;SDS011;31053;55.870;37.592;2023-11-22T11:15:44;2.13;;;1.13;;
45316;SDS011;31053;55.870;37.592;2023-11-22T11:18:53;2.72;;;1.27;;
45316;SDS011;31053;55.870;37.592;2023-11-22T11:21:59;2.00;;;0.95;;
45316;SDS011;31053;55.870;37.592;2023-11-22T11:25:08;1.83;;;0.98;;
45316;SDS011;31053;55.870;37.592;2023-11-22T11:28:19;2.95;;;1.55;;
45316;SDS011;31053;55.870;37.592;2023-11-22T11:34:29;3.80;;;1.50;;
45316;SDS011;31053;55.870;37.592;2023-11-22T11:37:34;2.30;;;1.30;;
45316;SDS011;31053;55.870;37.592;2023-11-22T11:40:38;4.72;;;0.98;;
45316;SDS011;31053;55.870;37.592;2023-11-22T11:46:51;1.48;;;1.00;;
45316;SDS011;31053;55.870;37.592;2023-11-22T11:50:01;6.93;;;1.80;;
45316;SDS011;31053;55.870;37.592;2023-11-22T11:53:09;4.10;;;1.63;;
45316;SDS011;31053;55.870;37.592;2023-11-22T11:56:15;5.40;;;1.67;;
45316;SDS011;31053;55.870;37.592;2023-11-22T11:59:22;3.88;;;1.60;;
45316;SDS011;31053;55.870;37.592;2023-11-22T12:02:30;2.05;;;1.23;;
45316;SDS011;31053;55.870;37.592;2023-11-22T12:05:36;2.65;;;1.30;;
45316;SDS011;31053;55.870;37.592;2023-11-22T12:08:45;4.72;;;2.10;;
45316;SDS011;31053;55.870;37.592;2023-11-22T12:11:51;5.47;;;1.15;;
45316;SDS011;31053;55.870;37.592;2023-11-22T12:14:57;4.97;;;1.50;;
45316;SDS011;31053;55.870;37.592;2023-11-22T12:18:02;2.65;;;1.15;;
45316;SDS011;31053;55.870;37.592;2023-11-22T12:21:08;4.37;;;1.63;;
45316;SDS011;31053;55.870;37.592;2023-11-22T12:24:17;8.20;;;1.10;;
45316;SDS011;31053;55.870;37.592;2023-11-22T12:27:22;1.60;;;0.88;;
45316;SDS011;31053;55.870;37.592;2023-11-22T12:33:37;2.50;;;1.05;;
45316;SDS011;31053;55.870;37.592;2023-11-22T12:36:45;2.22;;;1.17;;
45316;SDS011;31053;55.870;37.592;2023-11-22T12:39:51;8.05;;;3.28;;
45316;SDS011;31053;55.870;37.592;2023-11-22T12:42:57;4.60;;;1.93;;
45316;SDS011;31053;55.870;37.592;2023-11-22T12:46:02;2.90;;;1.17;;
45316;SDS011;31053;55.870;37.592;2023-11-22T12:49:08;1.55;;;0.80;;
45316;SDS011;31053;55.870;37.592;2023-11-22T12:52:17;2.70;;;1.23;;
45316;SDS011;31053;55.870;37.592;2023-11-22T12:55:26;5.18;;;1.38;;
45316;SDS011;31053;55.870;37.592;2023-11-22T12:58:31;1.50;;;1.00;;
45316;SDS011;31053;55.870;37.592;2023-11-22T13:01:37;1.02;;;0.80;;
45316;SDS011;31053;55.870;37.592;2023-11-22T13:04:44;2.30;;;1.15;;
45316;SDS011;31053;55.870;37.592;2023-11-22T13:07:50;3.03;;;1.13;;
45316;SDS011;31053;55.870;37.592;2023-11-22T13:10:55;3.47;;;1.30;;
45316;SDS011;31053;55.870;37.592;2023-11-22T13:14:04;3.90;;;1.23;;
45316;SDS011;31053;55.870;37.592;2023-11-22T13:17:10;1.02;;;0.93;;
45316;SDS011;31053;55.870;37.592;2023-11-22T13:20:15;2.85;;;1.48;;
45316;SDS011;31053;55.870;37.592;2023-11-22T13:23:20;4.55;;;1.63;;
45316;SDS011;31053;55.870;37.592;2023-11-22T13:26:26;2.55;;;1.77;;
45316;SDS011;31053;55.870;37.592;2023-11-22T13:29:48;3.42;;;1.65;;
45316;SDS011;31053;55.870;37.592;2023-11-22T13:37:03;3.25;;;1.42;;
45316;SDS011;31053;55.870;37.592;2023-11-22T13:40:13;2.45;;;1.65;;
45316;SDS011;31053;55.870;37.592;2023-11-22T13:43:23;3.80;;;1.67;;
45316;SDS011;31053;55.870;37.592;2023-11-22T13:46:28;4.55;;;1.85;;
45316;SDS011;31053;55.870;37.592;2023-11-22T13:49:36;6.30;;;2.10;;
45316;SDS011;31053;55.870;37.592;2023-11-22T13:52:41;8.38;;;3.13;;
45316;SDS011;31053;55.870;37.592;2023-11-22T13:55:50;13.15;;;2.53;;
45316;SDS011;31053;55.870;37.592;2023-11-22T13:58:57;6.47;;;1.98;;
45316;SDS011;31053;55.870;37.592;2023-11-22T14:02:11;8.02;;;2.05;;
45316;SDS011;31053;55.870;37.592;2023-11-22T14:05:17;4.53;;;1.70;;
45316;SDS011;31053;55.870;37.592;2023-11-22T14:08:24;6.60;;;2.35;;
45316;SDS011;31053;55.870;37.592;2023-11-22T14:11:32;14.95;;;3.45;;
45316;SDS011;31053;55.870;37.592;2023-11-22T14:14:42;5.78;;;2.15;;
45316;SDS011;31053;55.870;37.592;2023-11-22T14:17:54;6.15;;;2.22;;
45316;SDS011;31053;55.870;37.592;2023-11-22T14:20:59;5.20;;;2.17;;
45316;SDS011;31053;55.870;37.592;2023-11-22T14:24:04;5.30;;;2.07;;
45316;SDS011;31053;55.870;37.592;2023-11-22T14:27:09;6.23;;;2.60;;
45316;SDS011;31053;55.870;37.592;2023-11-22T14:30:15;5.55;;;2.80;;
45316;SDS011;31053;55.870;37.592;2023-11-22T14:33:23;9.15;;;4.03;;
45316;SDS011;31053;55.870;37.592;2023-11-22T14:36:33;10.43;;;3.13;;
45316;SDS011;31053;55.870;37.592;2023-11-22T14:39:40;12.63;;;4.00;;
45316;SDS011;31053;55.870;37.592;2023-11-22T14:42:48;10.25;;;3.47;;
45316;SDS011;31053;55.870;37.592;2023-11-22T14:45:56;10.25;;;3.85;;
45316;SDS011;31053;55.870;37.592;2023-11-22T14:49:02;3.80;;;1.90;;
45316;SDS011;31053;55.870;37.592;2023-11-22T14:52:10;20.42;;;8.27;;
45316;SDS011;31053;55.870;37.592;2023-11-22T14:55:16;13.43;;;4.97;;
45316;SDS011;31053;55.870;37.592;2023-11-22T14:58:23;11.40;;;5.32;;
45316;SDS011;31053;55.870;37.592;2023-11-22T15:01:32;9.75;;;4.07;;
45316;SDS011;31053;55.870;37.592;2023-11-22T15:04:39;12.48;;;3.28;;
45316;SDS011;31053;55.870;37.592;2023-11-22T15:07:44;7.80;;;3.38;;
45316;SDS011;31053;55.870;37.592;2023-11-22T15:10:54;10.30;;;3.30;;
45316;SDS011;31053;55.870;37.592;2023-11-22T15:14:01;11.55;;;4.22;;
45316;SDS011;31053;55.870;37.592;2023-11-22T15:17:10;8.27;;;3.38;;
45316;SDS011;31053;55.870;37.592;2023-11-22T15:20:25;10.95;;;4.40;;
45316;SDS011;31053;55.870;37.592;2023-11-22T15:23:30;11.77;;;4.40;;
45316;SDS011;31053;55.870;37.592;2023-11-22T15:26:36;8.43;;;3.50;;
45316;SDS011;31053;55.870;37.592;2023-11-22T15:29:44;11.98;;;3.80;;
45316;SDS011;31053;55.870;37.592;2023-11-22T15:32:49;13.32;;;3.20;;
45316;SDS011;31053;55.870;37.592;2023-11-22T15:35:53;15.05;;;4.28;;
45316;SDS011;31053;55.870;37.592;2023-11-22T15:38:58;11.38;;;3.92;;
45316;SDS011;31053;55.870;37.592;2023-11-22T15:42:03;8.38;;;3.80;;
45316;SDS011;31053;55.870;37.592;2023-11-22T15:45:11;8.13;;;3.28;;
45316;SDS011;31053;55.870;37.592;2023-11-22T15:48:17;12.15;;;4.07;;
45316;SDS011;31053;55.870;37.592;2023-11-22T15:51:21;10.98;;;3.45;;
45316;SDS011;31053;55.870;37.592;2023-11-22T15:54:27;16.63;;;4.82;;
45316;SDS011;31053;55.870;37.592;2023-11-22T15:57:32;12.07;;;4.80;;
45316;SDS011;31053;55.870;37.592;2023-11-22T16:00:39;8.30;;;3.90;;
45316;SDS011;31053;55.870;37.592;2023-11-22T16:03:44;10.15;;;3.22;;
45316;SDS011;31053;55.870;37.592;2023-11-22T16:06:48;10.75;;;4.60;;
45316;SDS011;31053;55.870;37.592;2023-11-22T16:10:02;19.60;;;5.50;;
45316;SDS011;31053;55.870;37.592;2023-11-22T16:13:09;16.27;;;5.55;;
45316;SDS011;31053;55.870;37.592;2023-11-22T16:16:15;14.68;;;5.72;;
45316;SDS011;31053;55.870;37.592;2023-11-22T16:19:21;11.40;;;4.63;;
45316;SDS011;31053;55.870;37.592;2023-11-22T16:22:26;14.52;;;5.53;;
45316;SDS011;31053;55.870;37.592;2023-11-22T16:25:31;16.33;;;5.45;;
45316;SDS011;31053;55.870;37.592;2023-11-22T16:28:38;10.15;;;4.43;;
45316;SDS011;31053;55.870;37.592;2023-11-22T16:31:42;15.43;;;4.57;;
45316;SDS011;31053;55.870;37.592;2023-11-22T16:34:47;14.15;;;5.13;;
45316;SDS011;31053;55.870;37.592;2023-11-22T16:37:52;11.80;;;4.85;;
45316;SDS011;31053;55.870;37.592;2023-11-22T16:40:57;17.33;;;5.75;;
45316;SDS011;31053;55.870;37.592;2023-11-22T16:44:02;21.52;;;5.13;;
45316;SDS011;31053;55.870;37.592;2023-11-22T16:47:07;14.13;;;4.97;;
45316;SDS011;31053;55.870;37.592;2023-11-22T16:50:12;12.40;;;5.17;;
45316;SDS011;31053;55.870;37.592;2023-11-22T16:53:17;14.25;;;5.25;;
45316;SDS011;31053;55.870;37.592;2023-11-22T16:56:22;17.40;;;5.85;;
45316;SDS011;31053;55.870;37.592;2023-11-22T16:59:27;9.13;;;4.10;;
45316;SDS011;31053;55.870;37.592;2023-11-22T17:02:32;14.88;;;4.13;;
45316;SDS011;31053;55.870;37.592;2023-11-22T17:05:36;10.00;;;4.20;;
45316;SDS011;31053;55.870;37.592;2023-11-22T17:08:40;10.48;;;3.70;;
45316;SDS011;31053;55.870;37.592;2023-11-22T17:11:45;14.98;;;4.78;;
45316;SDS011;31053;55.870;37.592;2023-11-22T17:14:51;11.00;;;5.10;;
45316;SDS011;31053;55.870;37.592;2023-11-22T17:17:56;17.15;;;4.53;;
45316;SDS011;31053;55.870;37.592;2023-11-22T17:21:01;14.05;;;4.78;;
45316;SDS011;31053;55.870;37.592;2023-11-22T17:24:05;23.25;;;5.72;;
45316;SDS011;31053;55.870;37.592;2023-11-22T17:27:12;10.70;;;4.15;;
45316;SDS011;31053;55.870;37.592;2023-11-22T17:30:16;12.55;;;4.05;;
45316;SDS011;31053;55.870;37.592;2023-11-22T17:33:21;9.30;;;3.83;;
45316;SDS011;31053;55.870;37.592;2023-11-22T17:36:26;13.20;;;4.30;;
45316;SDS011;31053;55.870;37.592;2023-11-22T17:39:31;11.15;;;4.40;;
45316;SDS011;31053;55.870;37.592;2023-11-22T17:42:37;10.80;;;4.75;;
45316;SDS011;31053;55.870;37.592;2023-11-22T17:45:42;6.22;;;3.10;;
45316;SDS011;31053;55.870;37.592;2023-11-22T17:48:46;15.15;;;4.10;;
45316;SDS011;31053;55.870;37.592;2023-11-22T17:51:52;13.95;;;4.35;;
45316;SDS011;31053;55.870;37.592;2023-11-22T17:54:59;13.40;;;4.80;;
45316;SDS011;31053;55.870;37.592;2023-11-22T17:58:09;5.70;;;2.90;;
45316;SDS011;31053;55.870;37.592;2023-11-22T18:01:14;10.50;;;3.60;;
45316;SDS011;31053;55.870;37.592;2023-11-22T18:04:18;8.77;;;4.00;;
45316;SDS011;31053;55.870;37.592;2023-11-22T18:07:23;15.55;;;4.30;;
45316;SDS011;31053;55.870;37.592;2023-11-22T18:10:27;13.05;;;5.07;;
45316;SDS011;31053;55.870;37.592;2023-11-22T18:13:33;14.30;;;4.03;;
45316;SDS011;31053;55.870;37.592;2023-11-22T18:16:38;13.75;;;5.72;;
45316;SDS011;31053;55.870;37.592;2023-11-22T18:19:46;10.95;;;3.92;;
45316;SDS011;31053;55.870;37.592;2023-11-22T18:22:55;10.45;;;3.58;;
45316;SDS011;31053;55.870;37.592;2023-11-22T18:26:05;14.43;;;4.00;;
45316;SDS011;31053;55.870;37.592;2023-11-22T18:29:13;13.07;;;4.32;;
45316;SDS011;31053;55.870;37.592;2023-11-22T18:32:27;7.07;;;2.97;;
45316;SDS011;31053;55.870;37.592;2023-11-22T18:35:32;13.00;;;4.50;;
45316;SDS011;31053;55.870;37.592;2023-11-22T18:38:38;14.30;;;2.78;;
45316;SDS011;31053;55.870;37.592;2023-11-22T18:41:43;11.45;;;4.60;;
45316;SDS011;31053;55.870;37.592;2023-11-22T18:44:52;10.00;;;3.92;;
45316;SDS011;31053;55.870;37.592;2023-11-22T18:47:57;11.52;;;4.43;;
45316;SDS011;31053;55.870;37.592;2023-11-22T18:51:07;9.32;;;4.00;;
45316;SDS011;31053;55.870;37.592;2023-11-22T18:54:23;12.37;;;4.33;;
45316;SDS011;31053;55.870;37.592;2023-11-22T18:57:26;9.20;;;3.53;;
45316;SDS011;31053;55.870;37.592;2023-11-22T19:00:42;8.93;;;3.40;;
45316;SDS011;31053;55.870;37.592;2023-11-22T19:03:52;8.85;;;3.75;;
45316;SDS011;31053;55.870;37.592;2023-11-22T19:07:14;7.25;;;2.92;;
45316;SDS011;31053;55.870;37.592;2023-11-22T19:10:25;8.85;;;2.97;;
45316;SDS011;31053;55.870;37.592;2023-11-22T19:13:32;14.55;;;4.30;;
45316;SDS011;31053;55.870;37.592;2023-11-22T19:16:38;6.63;;;2.53;;
45316;SDS011;31053;55.870;37.592;2023-11-22T19:19:49;6.63;;;2.92;;
45316;SDS011;31053;55.870;37.592;2023-11-22T19:23:08;6.70;;;2.10;;
45316;SDS011;31053;55.870;37.592;2023-11-22T19:26:19;9.70;;;3.15;;
45316;SDS011;31053;55.870;37.592;2023-11-22T19:29:26;10.48;;;3.20;;
45316;SDS011;31053;55.870;37.592;2023-11-22T19:32:32;4.00;;;1.70;;
45316;SDS011;31053;55.870;37.592;2023-11-22T19:35:39;5.97;;;2.35;;
45316;SDS011;31053;55.870;37.592;2023-11-22T19:38:43;6.55;;;2.83;;
45316;SDS011;31053;55.870;37.592;2023-11-22T19:41:48;8.32;;;2.53;;
45316;SDS011;31053;55.870;37.592;2023-11-22T19:44:53;5.23;;;1.80;;
45316;SDS011;31053;55.870;37.592;2023-11-22T19:48:01;3.20;;;1.60;;
45316;SDS011;31053;55.870;37.592;2023-11-22T19:51:06;2.58;;;1.52;;
45316;SDS011;31053;55.870;37.592;2023-11-22T19:54:19;2.78;;;1.33;;
45316;SDS011;31053;55.870;37.592;2023-11-22T19:57:28;10.02;;;2.17;;
45316;SDS011;31053;55.870;37.592;2023-11-22T20:00:33;10.70;;;2.67;;
45316;SDS011;31053;55.870;37.592;2023-11-22T20:03:41;3.45;;;1.30;;
45316;SDS011;31053;55.870;37.592;2023-11-22T20:06:47;4.47;;;1.42;;
45316;SDS011;31053;55.870;37.592;2023-11-22T20:09:52;2.83;;;1.20;;
45316;SDS011;31053;55.870;37.592;2023-11-22T20:13:01;2.45;;;1.17;;